createdAt,value
2018-11-13T00:02:01.398Z,24.63
2018-11-13T00:04:30.106Z,24.67
2018-11-13T00:06:58.802Z,26.60
2018-11-13T00:09:27.467Z,24.50
2018-11-13T00:11:56.170Z,25.20
2018-11-13T00:14:24.875Z,25.70
2018-11-13T00:16:53.731Z,24.23
2018-11-13T00:19:22.378Z,24.33
2018-11-13T00:21:51.072Z,28.33
2018-11-13T00:24:19.742Z,25.33
2018-11-13T00:26:48.427Z,25.20
2018-11-13T00:29:17.150Z,27.67
2018-11-13T00:31:45.851Z,26.60
2018-11-13T00:34:14.512Z,25.50
2018-11-13T00:36:43.258Z,26.73
2018-11-13T00:39:13.144Z,27.47
2018-11-13T00:41:42.100Z,28.70
2018-11-13T00:44:11.229Z,27.00
2018-11-13T00:46:39.942Z,25.17
2018-11-13T00:49:08.627Z,26.33
2018-11-13T00:51:38.032Z,25.63
2018-11-13T00:54:06.738Z,29.00
2018-11-13T00:56:35.498Z,29.33
2018-11-13T00:59:04.287Z,29.77
2018-11-13T01:01:32.950Z,28.83
2018-11-13T01:04:01.703Z,28.50
2018-11-13T01:06:30.462Z,28.33
2018-11-13T01:08:59.635Z,28.80
2018-11-13T01:11:28.368Z,29.57
2018-11-13T01:13:57.078Z,28.83
2018-11-13T01:16:25.806Z,28.90
2018-11-13T01:18:54.505Z,28.20
2018-11-13T01:21:23.218Z,28.83
2018-11-13T01:23:51.978Z,29.87
2018-11-13T01:26:20.671Z,26.80
2018-11-13T01:28:49.392Z,28.53
2018-11-13T01:31:18.163Z,31.90
2018-11-13T01:33:46.864Z,29.17
2018-11-13T01:36:15.564Z,29.03
2018-11-13T01:38:44.253Z,27.93
2018-11-13T01:41:12.957Z,28.27
2018-11-13T01:43:41.643Z,28.80
2018-11-13T01:46:10.362Z,28.20
2018-11-13T01:48:39.067Z,27.93
2018-11-13T01:51:07.779Z,29.23
2018-11-13T01:53:36.464Z,28.90
2018-11-13T01:56:05.670Z,27.77
2018-11-13T01:58:34.424Z,25.23
2018-11-13T02:01:03.079Z,26.27
2018-11-13T02:03:31.756Z,28.23
2018-11-13T02:06:00.444Z,27.50
2018-11-13T02:08:29.159Z,26.33
2018-11-13T02:10:58.575Z,25.40
2018-11-13T02:13:27.274Z,26.90
2018-11-13T02:15:55.998Z,27.10
2018-11-13T02:18:24.679Z,26.23
2018-11-13T02:20:53.359Z,29.57
2018-11-13T02:23:22.074Z,28.67
2018-11-13T02:25:50.771Z,26.50
2018-11-13T02:28:19.450Z,25.40
2018-11-13T02:30:48.204Z,28.37
2018-11-13T02:33:16.888Z,26.07
2018-11-13T02:35:45.950Z,26.00
2018-11-13T02:38:14.651Z,27.67
2018-11-13T02:40:43.331Z,25.80
2018-11-13T02:43:12.009Z,25.67
2018-11-13T02:45:41.659Z,26.33
2018-11-13T02:48:10.471Z,24.07
2018-11-13T02:50:39.319Z,25.53
2018-11-13T02:53:08.023Z,24.17
2018-11-13T02:55:36.728Z,25.07
2018-11-13T02:58:05.823Z,26.03
2018-11-13T03:00:34.655Z,26.90
2018-11-13T03:03:03.356Z,27.93
2018-11-13T03:05:32.039Z,26.37
2018-11-13T03:08:00.739Z,24.97
2018-11-13T03:10:29.416Z,24.20
2018-11-13T03:12:58.124Z,24.17
2018-11-13T03:15:26.823Z,23.63
2018-11-13T03:17:55.527Z,24.50
2018-11-13T03:20:24.200Z,24.47
2018-11-13T03:22:52.948Z,23.17
2018-11-13T03:25:22.327Z,23.30
2018-11-13T03:27:51.039Z,23.37
2018-11-13T03:30:21.915Z,22.90
2018-11-13T03:32:50.883Z,24.57
2018-11-13T03:35:19.619Z,23.43
2018-11-13T03:37:48.327Z,23.60
2018-11-13T03:40:17.219Z,24.43
2018-11-13T03:42:46.916Z,24.20
2018-11-13T03:45:15.908Z,24.70
2018-11-13T03:47:44.630Z,22.30
2018-11-13T03:50:15.346Z,23.77
2018-11-13T03:52:44.364Z,24.57
2018-11-13T03:55:13.580Z,27.10
2018-11-13T03:57:43.090Z,24.80
2018-11-13T04:00:16.851Z,26.73
2018-11-13T04:02:45.525Z,25.37
2018-11-13T04:05:15.434Z,27.20
2018-11-13T04:07:45.462Z,27.00
2018-11-13T04:10:15.287Z,25.77
2018-11-13T04:12:44.108Z,25.43
2018-11-13T04:15:15.862Z,27.03
2018-11-13T04:17:44.535Z,28.00
2018-11-13T04:20:14.695Z,25.90
2018-11-13T04:22:43.815Z,27.80
2018-11-13T04:25:12.520Z,24.83
2018-11-13T04:27:46.996Z,26.07
2018-11-13T04:30:16.762Z,28.80
2018-11-13T04:32:45.526Z,25.70
2018-11-13T04:35:15.273Z,26.33
2018-11-13T04:37:43.965Z,24.60
2018-11-13T04:40:14.033Z,25.07
2018-11-13T04:42:44.164Z,24.83
2018-11-13T04:45:14.207Z,23.50
2018-11-13T04:47:43.715Z,21.67
2018-11-13T04:50:14.565Z,21.80
2018-11-13T04:52:43.568Z,21.23
2018-11-13T04:55:12.579Z,20.33
2018-11-13T04:57:42.215Z,18.27
2018-11-13T05:00:15.599Z,18.63
2018-11-13T05:02:44.932Z,18.30
2018-11-13T05:05:14.550Z,18.33
2018-11-13T05:07:45.403Z,17.40
2018-11-13T05:10:14.222Z,17.30
2018-11-13T05:12:43.830Z,17.47
2018-11-13T05:15:12.518Z,16.23
2018-11-13T05:17:42.049Z,15.77
2018-11-13T05:20:12.171Z,14.70
2018-11-13T05:22:40.887Z,14.23
2018-11-13T05:25:11.543Z,12.33
2018-11-13T05:27:40.626Z,12.33
2018-11-13T05:30:11.471Z,10.90
2018-11-13T05:32:40.243Z,12.90
2018-11-13T05:35:11.031Z,11.80
2018-11-13T05:37:40.541Z,11.30
2018-11-13T05:40:11.699Z,10.17
2018-11-13T05:42:40.419Z,11.27
2018-11-13T05:45:10.939Z,8.90
2018-11-13T05:47:39.739Z,9.00
2018-11-13T05:50:10.282Z,9.27
2018-11-13T05:52:39.400Z,9.57
2018-11-13T05:55:08.516Z,9.10
2018-11-13T05:57:37.379Z,9.73
2018-11-13T06:00:12.244Z,8.80
2018-11-13T06:02:40.965Z,9.00
2018-11-13T06:05:10.316Z,7.47
2018-11-13T06:07:39.033Z,9.37
2018-11-13T06:10:08.790Z,8.40
2018-11-13T06:12:37.483Z,8.60
2018-11-13T06:15:07.071Z,7.30
2018-11-13T06:17:35.770Z,9.10
2018-11-13T06:20:04.771Z,8.23
2018-11-13T06:22:33.578Z,8.07
2018-11-13T06:25:02.292Z,7.40
2018-11-13T06:27:31.011Z,8.33
2018-11-13T06:29:59.703Z,6.97
2018-11-13T06:32:28.406Z,6.20
2018-11-13T06:34:57.100Z,7.37
2018-11-13T06:37:25.782Z,6.70
2018-11-13T06:39:54.464Z,6.70
2018-11-13T06:42:23.162Z,6.30
2018-11-13T06:44:51.855Z,6.43
2018-11-13T06:47:20.571Z,5.87
2018-11-13T06:49:49.280Z,6.67
2018-11-13T06:52:17.967Z,5.93
2018-11-13T06:55:02.409Z,5.90
2018-11-13T06:57:31.864Z,5.80
2018-11-13T07:00:01.211Z,6.60
2018-11-13T07:02:29.955Z,5.77
2018-11-13T07:04:58.881Z,6.17
2018-11-13T07:07:27.551Z,5.33
2018-11-13T07:09:56.239Z,6.13
2018-11-13T07:12:24.950Z,5.60
2018-11-13T07:14:53.658Z,5.37
2018-11-13T07:17:22.377Z,5.00
2018-11-13T07:19:51.235Z,5.63
2018-11-13T07:22:19.923Z,5.73
2018-11-13T07:24:48.615Z,5.57
2018-11-13T07:27:17.406Z,6.60
2018-11-13T07:29:46.172Z,5.83
2018-11-13T07:32:14.868Z,4.97
2018-11-13T07:34:43.552Z,4.90
2018-11-13T07:37:12.254Z,5.60
2018-11-13T07:39:40.950Z,5.40
2018-11-13T07:42:09.646Z,5.40
2018-11-13T07:44:38.351Z,4.93
2018-11-13T07:47:07.077Z,5.03
2018-11-13T07:49:35.747Z,4.77
2018-11-13T07:52:04.696Z,4.87
2018-11-13T07:54:35.699Z,4.47
2018-11-13T07:57:04.847Z,4.00
2018-11-13T07:59:33.555Z,3.63
2018-11-13T08:02:02.365Z,3.97
2018-11-13T08:04:31.188Z,4.10
2018-11-13T08:06:59.960Z,3.90
2018-11-13T08:09:28.656Z,3.90
2018-11-13T08:11:57.323Z,4.47
2018-11-13T08:14:26.018Z,4.63
2018-11-13T08:16:54.753Z,4.77
2018-11-13T08:19:23.427Z,4.97
2018-11-13T08:21:52.174Z,6.53
2018-11-13T08:24:20.803Z,4.23
2018-11-13T08:26:49.490Z,4.43
2018-11-13T08:29:18.246Z,5.20
2018-11-13T08:31:46.883Z,4.70
2018-11-13T08:34:15.651Z,5.90
2018-11-13T08:36:44.332Z,5.27
2018-11-13T08:39:13.812Z,4.73
2018-11-13T08:41:42.488Z,4.60
2018-11-13T08:44:11.229Z,4.13
2018-11-13T08:46:39.907Z,4.00
2018-11-13T08:49:08.663Z,4.43
2018-11-13T08:51:37.924Z,3.90
2018-11-13T08:54:06.663Z,5.30
2018-11-13T08:56:35.366Z,4.57
2018-11-13T08:59:04.195Z,4.50
2018-11-13T09:01:32.766Z,3.50
2018-11-13T09:04:01.593Z,3.30
2018-11-13T09:06:30.283Z,3.83
2018-11-13T09:08:58.983Z,5.43
2018-11-13T09:11:27.741Z,5.80
2018-11-13T09:13:56.387Z,5.00
2018-11-13T09:16:25.090Z,5.07
2018-11-13T09:18:53.808Z,4.23
2018-11-13T09:21:22.477Z,5.07
2018-11-13T09:23:51.162Z,4.70
2018-11-13T09:26:19.945Z,4.53
2018-11-13T09:28:48.675Z,4.13
2018-11-13T09:31:17.434Z,4.40
2018-11-13T09:33:46.108Z,5.87
2018-11-13T09:36:14.816Z,6.20
2018-11-13T09:38:43.515Z,4.87
2018-11-13T09:41:12.274Z,4.53
2018-11-13T09:43:41.123Z,4.70
2018-11-13T09:46:09.819Z,5.90
2018-11-13T09:48:38.575Z,5.80
2018-11-13T09:51:07.258Z,5.13
2018-11-13T09:53:36.023Z,4.07
2018-11-13T09:56:04.803Z,5.93
2018-11-13T09:58:33.519Z,4.37
2018-11-13T10:01:02.545Z,4.23
2018-11-13T10:03:31.256Z,4.20
2018-11-13T10:05:59.731Z,3.10
2018-11-13T10:08:28.359Z,3.97
2018-11-13T10:10:57.043Z,3.70
2018-11-13T10:13:25.763Z,4.60
2018-11-13T10:15:54.486Z,4.20
2018-11-13T10:18:23.327Z,3.37
2018-11-13T10:20:51.907Z,3.10
2018-11-13T10:23:20.595Z,2.70
2018-11-13T10:25:49.290Z,2.70
2018-11-13T10:28:18.032Z,2.60
2018-11-13T10:30:46.680Z,2.30
2018-11-13T10:33:15.387Z,2.93
2018-11-13T10:35:44.072Z,2.87
2018-11-13T10:38:12.899Z,2.40
2018-11-13T10:40:41.692Z,3.33
2018-11-13T10:43:10.287Z,3.07
2018-11-13T10:45:38.964Z,2.10
2018-11-13T10:48:07.725Z,3.43
2018-11-13T10:50:36.427Z,1.70
2018-11-13T10:53:05.183Z,2.97
2018-11-13T10:55:33.875Z,3.63
2018-11-13T10:58:02.567Z,2.60
2018-11-13T11:00:36.586Z,2.63
2018-11-13T11:03:05.447Z,3.07
2018-11-13T11:05:33.989Z,3.20
2018-11-13T11:08:02.731Z,3.00
2018-11-13T11:10:31.419Z,2.77
2018-11-13T11:13:00.187Z,2.43
2018-11-13T11:15:28.770Z,2.63
2018-11-13T11:17:57.852Z,3.00
2018-11-13T11:20:26.515Z,2.50
2018-11-13T11:22:55.315Z,3.03
2018-11-13T11:25:24.046Z,2.33
2018-11-13T11:27:52.647Z,2.17
2018-11-13T11:30:21.290Z,2.37
2018-11-13T11:32:50.075Z,3.03
2018-11-13T11:35:18.743Z,2.77
2018-11-13T11:37:47.563Z,2.13
2018-11-13T11:40:16.280Z,2.17
2018-11-13T11:42:45.686Z,2.27
2018-11-13T11:45:14.882Z,2.13
2018-11-13T11:47:43.890Z,1.90
2018-11-13T11:50:13.607Z,1.87
2018-11-13T11:52:42.303Z,2.37
2018-11-13T11:55:11.828Z,2.23
2018-11-13T11:57:40.595Z,2.73
2018-11-13T12:00:11.175Z,2.80
2018-11-13T12:02:39.919Z,2.40
2018-11-13T12:05:08.883Z,2.17
2018-11-13T12:07:38.346Z,2.43
2018-11-13T12:10:09.147Z,2.53
2018-11-13T12:12:38.591Z,2.30
2018-11-13T12:15:08.661Z,2.70
2018-11-13T12:17:37.379Z,2.17
2018-11-13T12:20:07.282Z,2.70
2018-11-13T12:22:35.967Z,2.43
2018-11-13T12:25:06.427Z,2.30
2018-11-13T12:27:35.119Z,2.20
2018-11-13T12:30:05.043Z,2.67
2018-11-13T12:32:33.736Z,2.40
2018-11-13T12:35:02.437Z,2.13
2018-11-13T12:37:31.187Z,2.40
2018-11-13T12:40:00.011Z,2.43
2018-11-13T12:42:28.695Z,2.60
2018-11-13T12:44:57.420Z,2.20
2018-11-13T12:47:26.096Z,2.20
2018-11-13T12:49:54.763Z,2.10
2018-11-13T12:52:24.273Z,2.47
2018-11-13T12:54:52.138Z,2.20
2018-11-13T12:57:21.067Z,2.10
2018-11-13T12:59:49.832Z,2.20
2018-11-13T13:02:18.649Z,2.70
2018-11-13T13:04:47.238Z,3.20
2018-11-13T13:07:15.923Z,2.43
2018-11-13T13:09:44.751Z,2.40
2018-11-13T13:12:13.921Z,2.67
2018-11-13T13:14:42.686Z,2.63
2018-11-13T13:17:11.332Z,2.20
2018-11-13T13:19:40.044Z,3.57
2018-11-13T13:22:08.793Z,3.03
2018-11-13T13:24:37.442Z,2.43
2018-11-13T13:27:06.115Z,2.10
2018-11-13T13:29:34.786Z,3.03
2018-11-13T13:32:03.455Z,2.00
2018-11-13T13:34:32.163Z,3.07
2018-11-13T13:37:00.835Z,2.10
2018-11-13T13:39:29.529Z,2.13
2018-11-13T13:41:58.240Z,2.07
2018-11-13T13:44:26.916Z,2.43
2018-11-13T13:46:55.619Z,2.20
2018-11-13T13:49:24.323Z,2.40
2018-11-13T13:51:53.023Z,2.90
2018-11-13T13:54:21.765Z,2.83
2018-11-13T13:56:50.411Z,2.80
2018-11-13T13:59:19.135Z,2.83
2018-11-13T14:01:47.815Z,2.47
2018-11-13T14:04:16.503Z,2.50
2018-11-13T14:06:45.187Z,1.90
2018-11-13T14:09:13.959Z,2.43
2018-11-13T14:11:42.668Z,2.17
2018-11-13T14:14:11.339Z,2.97
2018-11-13T14:16:40.024Z,2.50
2018-11-13T14:19:08.728Z,1.80
2018-11-13T14:21:37.403Z,4.00
2018-11-13T14:24:06.207Z,2.53
2018-11-13T14:26:34.933Z,2.33
2018-11-13T14:29:03.615Z,2.50
2018-11-13T14:31:32.361Z,3.70
2018-11-13T14:34:01.062Z,2.60
2018-11-13T14:36:29.747Z,2.60
2018-11-13T14:38:58.427Z,2.70
2018-11-13T14:41:27.923Z,3.20
2018-11-13T14:43:56.643Z,2.57
2018-11-13T14:46:25.433Z,2.03
2018-11-13T14:48:54.051Z,2.10
2018-11-13T14:51:22.741Z,2.73
2018-11-13T14:53:51.480Z,2.87
2018-11-13T14:56:20.163Z,2.73
2018-11-13T14:58:48.847Z,2.73
2018-11-13T15:01:17.560Z,2.07
2018-11-13T15:03:46.240Z,3.43
2018-11-13T15:06:14.930Z,3.43
2018-11-13T15:08:43.631Z,3.40
2018-11-13T15:11:12.317Z,3.10
2018-11-13T15:13:41.019Z,2.77
2018-11-13T15:16:09.710Z,2.87
2018-11-13T15:18:38.420Z,2.30
2018-11-13T15:21:07.099Z,2.93
2018-11-13T15:23:35.842Z,2.33
2018-11-13T15:26:04.782Z,2.97
2018-11-13T15:28:33.462Z,2.97
2018-11-13T15:31:02.232Z,2.40
2018-11-13T15:33:30.867Z,2.30
2018-11-13T15:35:59.576Z,2.33
2018-11-13T15:38:28.332Z,2.80
2018-11-13T15:40:57.007Z,2.70
2018-11-13T15:43:25.683Z,3.73
2018-11-13T15:45:55.252Z,3.00
2018-11-13T15:48:23.929Z,2.77
2018-11-13T15:50:52.619Z,3.80
2018-11-13T15:53:21.328Z,3.33
2018-11-13T15:55:50.071Z,2.87
2018-11-13T15:58:18.795Z,3.83
2018-11-13T16:00:48.174Z,3.97
2018-11-13T16:03:36.244Z,2.80
2018-11-13T16:06:06.235Z,2.93
2018-11-13T16:08:34.915Z,3.33
2018-11-13T16:11:03.701Z,3.10
2018-11-13T16:13:32.510Z,3.23
2018-11-13T16:16:01.219Z,3.70
2018-11-13T16:18:30.672Z,2.80
2018-11-13T16:20:59.406Z,2.93
2018-11-13T16:23:28.115Z,2.70
2018-11-13T16:25:56.808Z,2.77
2018-11-13T16:28:25.508Z,3.60
2018-11-13T16:30:54.900Z,3.73
2018-11-13T16:33:23.399Z,3.00
2018-11-13T16:35:52.087Z,3.00
2018-11-13T16:38:20.833Z,3.60
2018-11-13T16:40:49.498Z,6.27
2018-11-13T16:43:18.200Z,4.43
2018-11-13T16:45:47.007Z,4.00
2018-11-13T16:48:15.827Z,3.80
2018-11-13T16:50:44.439Z,4.87
2018-11-13T16:53:13.123Z,3.30
2018-11-13T16:55:47.272Z,3.90
2018-11-13T16:58:17.131Z,3.10
2018-11-13T17:00:45.991Z,3.93
2018-11-13T17:03:14.551Z,3.37
2018-11-13T17:05:43.311Z,3.37
2018-11-13T17:08:11.982Z,3.83
2018-11-13T17:10:41.739Z,3.60
2018-11-13T17:13:10.537Z,4.17
2018-11-13T17:15:39.309Z,5.20
2018-11-13T17:18:08.119Z,3.90
2018-11-13T17:20:36.980Z,3.43
2018-11-13T17:23:05.591Z,3.10
2018-11-13T17:25:35.675Z,3.50
2018-11-13T17:28:04.429Z,3.67
2018-11-13T17:30:34.406Z,3.70
2018-11-13T17:33:04.431Z,2.77
2018-11-13T17:35:33.215Z,4.00
2018-11-13T17:38:02.598Z,3.33
2018-11-13T17:40:33.307Z,3.77
2018-11-13T17:43:03.652Z,3.77
2018-11-13T17:45:37.977Z,3.80
2018-11-13T17:48:07.764Z,4.20
2018-11-13T17:50:39.611Z,3.90
2018-11-13T17:53:09.177Z,3.47
2018-11-13T17:55:38.043Z,3.70
2018-11-13T17:58:10.090Z,4.00
2018-11-13T18:00:42.150Z,4.13
2018-11-13T18:03:12.267Z,3.50
2018-11-13T18:05:41.364Z,3.63
2018-11-13T18:08:10.719Z,3.53
2018-11-13T18:10:40.716Z,4.30
2018-11-13T18:13:09.559Z,4.47
2018-11-13T18:15:38.306Z,3.80
2018-11-13T18:18:07.372Z,4.10
2018-11-13T18:20:37.183Z,3.37
2018-11-13T18:23:06.690Z,4.37
2018-11-13T18:25:35.455Z,4.03
2018-11-13T18:28:04.370Z,4.10
2018-11-13T18:30:34.347Z,4.17
2018-11-13T18:33:03.655Z,3.50
2018-11-13T18:35:33.587Z,4.80
2018-11-13T18:38:03.747Z,5.00
2018-11-13T18:40:32.357Z,4.23
2018-11-13T18:43:01.740Z,3.67
2018-11-13T18:45:32.051Z,4.03
2018-11-13T18:48:00.775Z,3.87
2018-11-13T18:50:31.311Z,5.10
2018-11-13T18:53:00.024Z,3.93
2018-11-13T18:55:28.706Z,5.03
2018-11-13T18:57:57.935Z,3.97
2018-11-13T19:00:28.775Z,5.40
2018-11-13T19:02:58.099Z,4.80
2018-11-13T19:05:27.090Z,3.83
2018-11-13T19:07:55.967Z,5.20
2018-11-13T19:10:31.232Z,5.03
2018-11-13T19:13:01.079Z,4.40
2018-11-13T19:15:30.847Z,3.90
2018-11-13T19:18:00.010Z,4.50
2018-11-13T19:20:28.684Z,4.37
2018-11-13T19:22:57.391Z,4.47
2018-11-13T19:25:27.547Z,4.40
2018-11-13T19:27:56.864Z,5.03
2018-11-13T19:30:25.667Z,4.43
2018-11-13T19:32:54.495Z,3.97
2018-11-13T19:35:23.664Z,4.73
2018-11-13T19:37:52.388Z,5.13
2018-11-13T19:40:22.507Z,4.20
2018-11-13T19:42:51.845Z,5.17
2018-11-13T19:45:21.009Z,5.23
2018-11-13T19:47:49.765Z,5.93
2018-11-13T19:50:19.977Z,5.33
2018-11-13T19:52:48.650Z,5.50
2018-11-13T19:55:17.870Z,4.73
2018-11-13T19:57:47.113Z,4.63
2018-11-13T20:00:19.885Z,6.20
2018-11-13T20:02:50.680Z,5.03
2018-11-13T20:05:19.423Z,4.80
2018-11-13T20:07:48.307Z,5.00
2018-11-13T20:10:20.173Z,4.97
2018-11-13T20:12:49.659Z,5.17
2018-11-13T20:15:18.847Z,4.50
2018-11-13T20:17:47.639Z,5.40
2018-11-13T20:20:19.206Z,5.37
2018-11-13T20:22:48.622Z,6.33
2018-11-13T20:25:19.798Z,5.30
2018-11-13T20:27:48.572Z,5.47
2018-11-13T20:30:28.454Z,5.00
2018-11-13T20:32:57.277Z,5.60
2018-11-13T20:35:25.984Z,6.63
2018-11-13T20:37:55.503Z,4.77
2018-11-13T20:40:25.496Z,4.90
2018-11-13T20:42:55.327Z,5.47
2018-11-13T20:45:24.079Z,4.40
2018-11-13T20:47:52.814Z,4.10
2018-11-13T20:50:22.860Z,3.97
2018-11-13T20:52:52.716Z,4.47
2018-11-13T20:55:21.502Z,5.40
2018-11-13T20:57:50.363Z,5.10
2018-11-13T21:00:21.679Z,4.77
2018-11-13T21:02:53.135Z,5.83
2018-11-13T21:05:21.837Z,4.30
2018-11-13T21:07:50.617Z,4.50
2018-11-13T21:10:20.880Z,4.87
2018-11-13T21:12:50.163Z,5.20
2018-11-13T21:15:19.995Z,5.03
2018-11-13T21:17:48.799Z,5.40
2018-11-13T21:20:18.585Z,4.77
2018-11-13T21:22:47.432Z,5.90
2018-11-13T21:25:23.496Z,5.37
2018-11-13T21:27:55.375Z,5.60
2018-11-13T21:30:24.411Z,5.60
2018-11-13T21:32:53.578Z,5.10
2018-11-13T21:35:22.287Z,5.23
2018-11-13T21:37:52.217Z,6.23
2018-11-13T21:40:23.083Z,5.60
2018-11-13T21:42:52.309Z,4.90
2018-11-13T21:45:22.006Z,5.47
2018-11-13T21:47:51.719Z,5.73
2018-11-13T21:50:21.751Z,5.37
2018-11-13T21:52:50.530Z,6.10
2018-11-13T21:55:20.387Z,5.40
2018-11-13T21:57:49.036Z,5.87
2018-11-13T22:00:23.024Z,5.40
2018-11-13T22:02:55.516Z,5.50
2018-11-13T22:05:25.319Z,6.47
2018-11-13T22:07:54.196Z,6.13
2018-11-13T22:10:22.952Z,5.37
2018-11-13T22:12:51.731Z,6.73
2018-11-13T22:15:21.845Z,6.50
2018-11-13T22:17:50.630Z,5.53
2018-11-13T22:20:19.979Z,5.60
2018-11-13T22:22:49.594Z,5.63
2018-11-13T22:25:20.477Z,5.30
2018-11-13T22:27:50.310Z,5.70
2018-11-13T22:30:28.906Z,4.90
2018-11-13T22:32:57.655Z,5.97
2018-11-13T22:35:26.385Z,5.10
2018-11-13T22:37:55.087Z,5.07
2018-11-13T22:40:25.165Z,6.53
2018-11-13T22:42:53.887Z,5.90
2018-11-13T22:45:23.770Z,6.43
2018-11-13T22:47:52.795Z,6.80
2018-11-13T22:50:23.729Z,5.77
2018-11-13T22:52:53.668Z,5.53
2018-11-13T22:55:22.431Z,6.67
2018-11-13T22:57:53.026Z,5.43
2018-11-13T23:00:25.681Z,6.20
2018-11-13T23:02:54.906Z,6.10
2018-11-13T23:05:23.627Z,5.77
2018-11-13T23:07:52.681Z,6.00
2018-11-13T23:10:21.612Z,5.37
2018-11-13T23:12:50.375Z,6.27
2018-11-13T23:15:20.465Z,6.10
2018-11-13T23:17:49.110Z,6.43
2018-11-13T23:20:18.983Z,6.10
2018-11-13T23:22:47.795Z,6.50
2018-11-13T23:25:17.879Z,6.50
2018-11-13T23:27:47.420Z,6.40
2018-11-13T23:30:18.030Z,6.30
2018-11-13T23:32:46.740Z,6.70
2018-11-13T23:35:15.707Z,6.83
2018-11-13T23:37:45.416Z,7.83
2018-11-13T23:40:16.263Z,8.00
2018-11-13T23:42:45.363Z,6.50
2018-11-13T23:45:14.991Z,7.70
2018-11-13T23:47:44.112Z,6.90
2018-11-13T23:50:13.214Z,5.67
2018-11-13T23:52:42.522Z,6.47
2018-11-13T23:55:12.343Z,5.20
2018-11-13T23:57:42.088Z,6.67
